Fuenterrabia, Spain
Current Conditions -  °F | °C
As of 11:30 AM on Sunday 25 Jan 2015 (Local Time) from LESO Reporting Station
Clear Clear  
Wind Chill: 46°   Ceiling: Unl
Heat Index: 46°   Visibility: 6mi
Dew Point: 39°   Wind: 0mph
Humidity: 76%   Direction: NA
Pressure: 30.59"   Gusts: NA
Location:  43.37°N, 1.79°W
Report Text: LESO 251030Z 00000KT CAVOK 08/04 Q1036
Loading
Personal Weather Stations






























Interactive Weather Map New forecast layout! Learn more

10-Day Weather Forecast

Advertisements
Track Severe Weather on mobile